createdAt,value
2022-10-05T00:01:00.485Z,17.63
2022-10-05T00:03:33.805Z,16.60
2022-10-05T00:06:01.795Z,12.53
2022-10-05T00:08:34.409Z,13.32
2022-10-05T00:11:02.517Z,15.05
2022-10-05T00:13:31.972Z,14.77
2022-10-05T00:16:09.405Z,13.52
2022-10-05T00:18:37.628Z,12.73
2022-10-05T00:21:17.776Z,12.45
2022-10-05T00:23:45.658Z,14.70
2022-10-05T00:26:17.439Z,15.10
2022-10-05T00:28:45.455Z,14.63
2022-10-05T00:31:18.352Z,14.38
2022-10-05T00:33:46.736Z,13.45
2022-10-05T00:36:15.594Z,15.45
2022-10-05T00:38:43.713Z,11.05
2022-10-05T00:41:18.787Z,16.23
2022-10-05T00:44:01.893Z,13.45
2022-10-05T00:46:42.529Z,10.15
2022-10-05T00:49:18.634Z,16.88
2022-10-05T00:51:57.629Z,11.07
2022-10-05T00:54:31.637Z,13.93
2022-10-05T00:57:15.805Z,16.58
2022-10-05T00:59:57.326Z,11.35
2022-10-05T01:02:36.563Z,10.15
2022-10-05T01:05:11.786Z,10.68
2022-10-05T01:07:46.786Z,13.38
2022-10-05T01:10:23.557Z,12.73
2022-10-05T01:13:02.322Z,14.48
2022-10-05T01:15:36.707Z,12.80
2022-10-05T01:18:12.242Z,12.60
2022-10-05T01:20:51.967Z,13.57
2022-10-05T01:23:35.365Z,14.90
2022-10-05T01:26:19.838Z,11.00
2022-10-05T01:28:54.591Z,9.65
2022-10-05T01:31:27.392Z,10.23
2022-10-05T01:34:06.766Z,13.57
2022-10-05T01:36:45.301Z,13.13
2022-10-05T01:39:20.510Z,15.27
2022-10-05T01:41:56.604Z,12.15
2022-10-05T01:44:32.292Z,13.80
2022-10-05T01:47:07.871Z,14.25
2022-10-05T01:49:39.052Z,11.95
2022-10-05T01:52:20.137Z,12.13
2022-10-05T01:54:59.056Z,14.43
2022-10-05T01:57:37.743Z,15.13
2022-10-05T02:00:10.358Z,12.90
2022-10-05T02:02:42.876Z,13.23
2022-10-05T02:05:15.143Z,12.57
2022-10-05T02:07:48.486Z,13.93
2022-10-05T02:10:22.876Z,9.87
2022-10-05T02:12:55.328Z,12.68
2022-10-05T02:15:30.822Z,13.43
2022-10-05T02:18:05.442Z,11.95
2022-10-05T02:20:35.625Z,14.57
2022-10-05T02:23:08.853Z,14.93
2022-10-05T02:25:39.202Z,19.58
2022-10-05T02:28:11.026Z,13.18
2022-10-05T02:30:46.078Z,10.23
2022-10-05T02:33:21.630Z,13.43
2022-10-05T02:35:49.548Z,13.35
2022-10-05T02:38:34.540Z,13.68
2022-10-05T02:41:10.689Z,12.95
2022-10-05T02:43:46.934Z,17.85
2022-10-05T02:46:25.698Z,12.88
2022-10-05T02:49:04.024Z,18.52
2022-10-05T02:51:40.614Z,12.15
2022-10-05T02:54:16.741Z,13.65
2022-10-05T02:56:52.794Z,15.27
2022-10-05T02:59:28.223Z,16.15
2022-10-05T03:02:02.591Z,16.48
2022-10-05T03:04:39.697Z,13.75
2022-10-05T03:07:15.214Z,16.95
2022-10-05T03:09:48.901Z,17.52
2022-10-05T03:12:32.503Z,15.00
2022-10-05T03:15:11.490Z,17.00
2022-10-05T03:17:49.068Z,15.32
2022-10-05T03:20:31.042Z,16.77
2022-10-05T03:23:02.109Z,13.20
2022-10-05T03:25:44.371Z,15.32
2022-10-05T03:28:18.323Z,14.15
2022-10-05T03:30:51.081Z,13.60
2022-10-05T03:33:28.853Z,19.90
2022-10-05T03:36:06.782Z,14.90
2022-10-05T03:38:42.515Z,17.00
2022-10-05T03:41:17.949Z,13.98
2022-10-05T03:44:19.848Z,16.45
2022-10-05T03:46:59.955Z,15.13
2022-10-05T03:49:38.231Z,16.23
2022-10-05T03:52:11.570Z,13.63
2022-10-05T03:54:42.749Z,19.30
2022-10-05T03:57:14.469Z,13.82
2022-10-05T03:59:51.932Z,14.27
2022-10-05T04:02:25.613Z,20.15
2022-10-05T04:05:00.523Z,14.82
2022-10-05T04:07:39.676Z,18.73
2022-10-05T04:10:17.620Z,16.13
2022-10-05T04:12:50.254Z,17.25
2022-10-05T04:15:24.544Z,13.65
2022-10-05T04:17:58.598Z,22.02
2022-10-05T04:20:31.844Z,16.23
2022-10-05T04:23:05.616Z,19.77
2022-10-05T04:25:38.100Z,15.95
2022-10-05T04:28:12.434Z,11.57
2022-10-05T04:30:44.918Z,15.60
2022-10-05T04:33:13.825Z,13.63
2022-10-05T04:36:07.468Z,10.35
2022-10-05T04:38:48.729Z,10.88
2022-10-05T04:41:37.962Z,14.93
2022-10-05T04:44:21.179Z,11.07
2022-10-05T04:47:04.794Z,15.43
2022-10-05T04:49:55.886Z,9.90
2022-10-05T04:52:32.945Z,14.55
2022-10-05T04:55:11.656Z,10.57
2022-10-05T04:57:45.973Z,10.18
2022-10-05T05:00:23.459Z,10.52
2022-10-05T05:03:13.609Z,11.90
2022-10-05T05:06:15.295Z,15.23
2022-10-05T05:09:06.127Z,14.48
2022-10-05T05:11:40.898Z,16.67
2022-10-05T05:14:26.724Z,10.90
2022-10-05T05:17:08.551Z,11.50
2022-10-05T05:19:46.332Z,15.23
2022-10-05T05:22:21.464Z,10.98
2022-10-05T05:25:06.197Z,14.07
2022-10-05T05:27:42.696Z,17.30
2022-10-05T05:30:21.549Z,12.27
2022-10-05T05:33:20.348Z,16.30
2022-10-05T05:36:25.517Z,19.23
2022-10-05T05:41:36.699Z,13.85
2022-10-05T05:44:15.362Z,15.95
2022-10-05T05:47:03.378Z,15.00
2022-10-05T05:49:48.011Z,15.90
2022-10-05T05:52:21.292Z,17.27
2022-10-05T05:54:55.834Z,10.50
2022-10-05T05:57:30.397Z,11.65
2022-10-05T06:00:06.641Z,11.57
2022-10-05T06:02:40.502Z,19.15
2022-10-05T06:05:28.314Z,11.93
2022-10-05T06:07:59.279Z,12.80
2022-10-05T06:10:33.407Z,12.48
2022-10-05T06:13:08.100Z,11.05
2022-10-05T06:15:41.928Z,11.63
2022-10-05T06:18:13.287Z,10.45
2022-10-05T06:20:43.618Z,11.95
2022-10-05T06:23:18.078Z,9.95
2022-10-05T06:25:57.612Z,12.15
2022-10-05T06:28:28.162Z,11.48
2022-10-05T06:31:01.902Z,14.65
2022-10-05T06:33:43.375Z,12.10
2022-10-05T06:36:19.515Z,11.02
2022-10-05T06:39:08.587Z,18.23
2022-10-05T06:41:54.463Z,12.25
2022-10-05T06:44:27.410Z,10.25
2022-10-05T06:47:02.981Z,11.32
2022-10-05T06:49:37.711Z,14.30
2022-10-05T06:52:13.851Z,14.98
2022-10-05T06:54:53.579Z,13.40
2022-10-05T06:57:38.478Z,13.77
2022-10-05T07:00:18.331Z,8.63
2022-10-05T07:02:54.352Z,10.82
2022-10-05T07:05:49.126Z,11.57
2022-10-05T07:08:24.166Z,11.27
2022-10-05T07:11:04.935Z,8.45
2022-10-05T07:13:54.172Z,9.02
2022-10-05T07:16:32.342Z,8.00
2022-10-05T07:19:12.204Z,8.18
2022-10-05T07:21:46.992Z,7.72
2022-10-05T07:24:29.283Z,10.10
2022-10-05T07:27:06.691Z,8.63
2022-10-05T07:29:44.359Z,11.40
2022-10-05T07:32:28.793Z,6.72
2022-10-05T07:35:04.564Z,5.30
2022-10-05T07:37:57.851Z,7.72
2022-10-05T07:40:30.312Z,7.82
2022-10-05T07:43:12.102Z,8.23
2022-10-05T07:45:46.823Z,8.07
2022-10-05T07:48:20.609Z,11.82
2022-10-05T07:51:00.860Z,9.35
2022-10-05T07:53:34.162Z,9.85
2022-10-05T07:56:05.997Z,6.83
2022-10-05T07:58:41.499Z,9.38
2022-10-05T08:01:14.550Z,9.10
2022-10-05T08:03:53.680Z,9.38
2022-10-05T08:06:42.134Z,6.20
2022-10-05T08:09:23.132Z,7.18
2022-10-05T08:12:03.025Z,7.80
2022-10-05T08:14:39.234Z,6.63
2022-10-05T08:17:14.670Z,7.65
2022-10-05T08:19:49.538Z,9.43
2022-10-05T08:22:25.288Z,6.47
2022-10-05T08:24:59.446Z,9.25
2022-10-05T08:30:03.768Z,9.18
2022-10-05T08:32:37.859Z,10.15
2022-10-05T08:35:22.647Z,6.30
2022-10-05T08:37:51.996Z,7.55
2022-10-05T08:40:56.946Z,6.45
2022-10-05T08:43:46.941Z,9.73
2022-10-05T08:46:29.043Z,5.13
2022-10-05T08:49:10.759Z,4.57
2022-10-05T08:52:26.394Z,6.78
2022-10-05T08:55:28.065Z,8.85
2022-10-05T08:58:27.091Z,5.60
2022-10-05T09:01:02.975Z,4.85
2022-10-05T09:04:00.923Z,4.78
2022-10-05T09:06:51.736Z,5.57
2022-10-05T09:09:32.118Z,3.72
2022-10-05T09:12:19.988Z,4.40
2022-10-05T09:15:24.215Z,6.68
2022-10-05T09:18:29.899Z,7.32
2022-10-05T09:21:03.653Z,3.78
2022-10-05T09:23:40.870Z,7.03
2022-10-05T09:26:29.765Z,10.70
2022-10-05T09:29:15.449Z,6.68
2022-10-05T09:32:05.354Z,7.15
2022-10-05T09:34:50.150Z,4.47
2022-10-05T09:37:40.016Z,10.38
2022-10-05T09:40:41.707Z,7.13
2022-10-05T09:43:33.461Z,8.05
2022-10-05T09:46:21.187Z,9.27
2022-10-05T09:49:18.466Z,5.65
2022-10-05T09:52:16.441Z,5.88
2022-10-05T09:55:23.995Z,5.95
2022-10-05T10:00:54.123Z,10.25
2022-10-05T10:04:10.175Z,18.40
2022-10-05T10:07:19.077Z,20.02
2022-10-05T10:10:09.015Z,9.70
2022-10-05T10:12:48.768Z,8.43
2022-10-05T10:15:59.544Z,15.98
2022-10-05T10:18:51.099Z,11.05
2022-10-05T10:21:39.100Z,6.10
2022-10-05T10:24:19.618Z,6.47
2022-10-05T10:27:08.112Z,13.60
2022-10-05T10:30:03.837Z,5.93
2022-10-05T10:33:15.644Z,9.18
2022-10-05T10:35:54.631Z,7.45
2022-10-05T10:38:35.152Z,10.15
2022-10-05T10:41:26.557Z,7.43
2022-10-05T10:44:29.801Z,12.98
2022-10-05T10:47:26.069Z,5.72
2022-10-05T10:50:24.030Z,6.07
2022-10-05T10:53:05.832Z,8.57
2022-10-05T10:55:46.518Z,11.10
2022-10-05T10:58:56.186Z,8.15
2022-10-05T11:01:33.538Z,6.75
2022-10-05T11:04:24.604Z,6.63
2022-10-05T11:07:22.529Z,8.38
2022-10-05T11:10:26.050Z,5.35
2022-10-05T11:13:24.720Z,6.35
2022-10-05T11:16:28.130Z,8.50
2022-10-05T11:19:15.499Z,9.50
2022-10-05T11:21:56.070Z,5.05
2022-10-05T11:24:44.823Z,8.98
2022-10-05T11:27:50.851Z,4.88
2022-10-05T11:30:36.223Z,7.78
2022-10-05T11:33:30.666Z,8.02
2022-10-05T11:36:54.880Z,6.78
2022-10-05T11:39:38.847Z,5.57
2022-10-05T11:42:46.063Z,5.55
2022-10-05T11:45:27.177Z,4.55
2022-10-05T11:48:34.438Z,5.13
2022-10-05T11:51:35.307Z,6.68
2022-10-05T11:54:38.301Z,4.43
2022-10-05T11:57:20.161Z,8.27
2022-10-05T11:59:57.077Z,4.73
2022-10-05T12:02:50.743Z,7.78
2022-10-05T12:05:23.852Z,10.88
2022-10-05T12:08:04.301Z,6.53
2022-10-05T12:10:42.545Z,7.78
2022-10-05T12:13:21.436Z,6.40
2022-10-05T12:15:55.361Z,8.65
2022-10-05T12:18:45.278Z,5.40
2022-10-05T12:21:22.799Z,9.25
2022-10-05T12:23:54.875Z,7.55
2022-10-05T12:26:27.176Z,5.20
2022-10-05T12:29:00.393Z,11.15
2022-10-05T12:31:37.034Z,3.92
2022-10-05T12:34:14.859Z,8.15
2022-10-05T12:37:05.395Z,7.93
2022-10-05T12:39:42.606Z,8.32
2022-10-05T12:42:26.230Z,6.45
2022-10-05T12:45:15.539Z,14.03
2022-10-05T12:48:01.586Z,5.47
2022-10-05T12:50:36.700Z,5.20
2022-10-05T12:53:25.345Z,4.85
2022-10-05T12:56:02.593Z,2.85
2022-10-05T12:58:41.260Z,6.85
2022-10-05T13:01:19.370Z,6.75
2022-10-05T13:03:53.331Z,8.70
2022-10-05T13:06:33.685Z,3.88
2022-10-05T13:09:06.541Z,5.38
2022-10-05T13:11:39.778Z,8.00
2022-10-05T13:14:18.939Z,3.28
2022-10-05T13:16:59.577Z,7.10
2022-10-05T13:19:41.456Z,9.15
2022-10-05T13:22:28.960Z,6.93
2022-10-05T13:25:27.253Z,4.82
2022-10-05T13:28:09.852Z,7.95
2022-10-05T13:30:40.294Z,3.47
2022-10-05T13:33:18.053Z,5.43
2022-10-05T13:35:52.298Z,12.27
2022-10-05T13:41:03.327Z,5.97
2022-10-05T13:43:43.997Z,5.85
2022-10-05T13:46:24.519Z,4.90
2022-10-05T13:49:02.505Z,6.28
2022-10-05T13:51:39.836Z,4.93
2022-10-05T13:54:18.623Z,8.10
2022-10-05T13:56:49.980Z,3.92
2022-10-05T13:59:26.087Z,6.45
2022-10-05T14:01:59.371Z,4.13
2022-10-05T14:04:31.187Z,6.93
2022-10-05T14:07:21.615Z,3.88
2022-10-05T14:09:51.056Z,7.97
2022-10-05T14:12:23.700Z,7.72
2022-10-05T14:14:54.070Z,8.93
2022-10-05T14:17:46.086Z,5.47
2022-10-05T14:20:24.428Z,4.07
2022-10-05T14:23:02.194Z,5.50
2022-10-05T14:25:32.847Z,7.32
2022-10-05T14:28:04.579Z,4.60
2022-10-05T14:30:33.693Z,3.03
2022-10-05T14:33:16.195Z,3.75
2022-10-05T14:35:50.275Z,6.22
2022-10-05T14:38:21.820Z,4.20
2022-10-05T14:41:17.325Z,8.98
2022-10-05T14:43:53.703Z,2.63
2022-10-05T14:46:28.526Z,4.63
2022-10-05T14:49:22.397Z,4.07
2022-10-05T14:51:51.676Z,6.15
2022-10-05T14:54:35.226Z,4.45
2022-10-05T14:57:19.227Z,4.18
2022-10-05T15:03:27.491Z,8.02
2022-10-05T15:05:59.975Z,5.85
2022-10-05T15:08:53.674Z,9.60
2022-10-05T15:11:35.039Z,10.73
2022-10-05T15:14:12.018Z,11.88
2022-10-05T15:16:41.094Z,7.05
2022-10-05T15:19:17.861Z,2.78
2022-10-05T15:22:02.051Z,7.00
2022-10-05T15:24:41.269Z,4.20
2022-10-05T15:27:19.136Z,8.80
2022-10-05T15:29:59.707Z,4.68
2022-10-05T15:32:44.159Z,6.97
2022-10-05T15:35:35.228Z,4.43
2022-10-05T15:41:14.884Z,5.65
2022-10-05T15:43:51.001Z,4.13
2022-10-05T15:46:34.181Z,6.15
2022-10-05T15:49:14.831Z,6.20
2022-10-05T15:51:56.517Z,6.22
2022-10-05T15:54:43.125Z,7.95
2022-10-05T15:57:19.230Z,5.88
2022-10-05T16:00:00.383Z,7.03
2022-10-05T16:02:40.851Z,2.90
2022-10-05T16:05:41.655Z,3.08
2022-10-05T16:08:35.168Z,7.50
2022-10-05T16:11:05.090Z,12.70
2022-10-05T16:13:42.744Z,10.50
2022-10-05T16:16:22.003Z,3.22
2022-10-05T16:19:01.204Z,6.90
2022-10-05T16:21:41.320Z,6.47
2022-10-05T16:24:21.888Z,2.00
2022-10-05T16:26:58.936Z,4.60
2022-10-05T16:29:39.513Z,2.55
2022-10-05T16:32:13.323Z,5.78
2022-10-05T16:34:56.794Z,4.53
2022-10-05T16:37:32.351Z,3.90
2022-10-05T16:40:02.407Z,7.45
2022-10-05T16:42:42.663Z,9.13
2022-10-05T16:45:27.204Z,7.28
2022-10-05T16:50:37.033Z,3.35
2022-10-05T16:53:13.389Z,6.82
2022-10-05T16:55:45.501Z,4.90
2022-10-05T16:58:20.240Z,14.90
2022-10-05T17:01:03.104Z,2.15
2022-10-05T17:03:45.489Z,3.67
2022-10-05T17:06:29.333Z,5.13
2022-10-05T17:09:39.513Z,9.80
2022-10-05T17:12:29.480Z,6.68
2022-10-05T17:15:13.174Z,13.77
2022-10-05T17:18:00.424Z,15.57
2022-10-05T17:20:42.796Z,5.68
2022-10-05T17:23:51.192Z,6.95
2022-10-05T17:26:42.527Z,2.47
2022-10-05T17:29:16.257Z,12.32
2022-10-05T17:32:10.733Z,6.05
2022-10-05T17:34:39.832Z,8.50
2022-10-05T17:37:35.207Z,4.57
2022-10-05T17:40:34.373Z,11.40
2022-10-05T17:43:06.454Z,4.90
2022-10-05T17:46:00.575Z,5.35
2022-10-05T17:48:45.152Z,4.97
2022-10-05T17:52:16.006Z,3.47
2022-10-05T17:55:27.456Z,8.48
2022-10-05T17:58:00.022Z,12.13
2022-10-05T18:00:51.099Z,3.80
2022-10-05T18:03:41.920Z,7.15
2022-10-05T18:06:42.286Z,7.78
2022-10-05T18:09:36.168Z,4.88
2022-10-05T18:12:28.796Z,4.60
2022-10-05T18:15:37.995Z,4.47
2022-10-05T18:18:34.733Z,5.88
2022-10-05T18:21:37.814Z,9.95
2022-10-05T18:24:53.439Z,4.28
2022-10-05T18:27:35.465Z,4.55
2022-10-05T18:30:19.194Z,1.90
2022-10-05T18:33:22.063Z,4.32
2022-10-05T18:36:10.044Z,5.03
2022-10-05T18:38:47.545Z,8.98
2022-10-05T18:41:25.037Z,5.70
2022-10-05T18:44:03.550Z,7.03
2022-10-05T18:46:46.982Z,5.32
2022-10-05T18:49:34.297Z,3.67
2022-10-05T18:52:10.831Z,5.32
2022-10-05T18:54:51.002Z,4.35
2022-10-05T18:57:51.434Z,5.50
2022-10-05T19:00:22.303Z,4.38
2022-10-05T19:02:57.163Z,7.03
2022-10-05T19:05:54.460Z,5.75
2022-10-05T19:08:32.789Z,2.60
2022-10-05T19:11:09.459Z,5.72
2022-10-05T19:13:46.751Z,4.22
2022-10-05T19:16:34.898Z,4.60
2022-10-05T19:19:29.392Z,4.80
2022-10-05T19:22:04.759Z,7.18
2022-10-05T19:24:48.019Z,12.25
2022-10-05T19:27:27.315Z,12.05
2022-10-05T19:30:18.625Z,7.22
2022-10-05T19:33:00.250Z,10.82
2022-10-05T19:35:38.959Z,7.55
2022-10-05T19:38:21.164Z,6.45
2022-10-05T19:40:57.824Z,7.25
2022-10-05T19:43:38.081Z,10.43
2022-10-05T19:46:19.043Z,4.40
2022-10-05T19:48:49.264Z,13.10
2022-10-05T19:51:30.399Z,9.55
2022-10-05T19:54:02.276Z,4.90
2022-10-05T19:56:33.959Z,7.13
2022-10-05T19:59:13.316Z,6.38
2022-10-05T20:01:45.442Z,7.93
2022-10-05T20:04:13.358Z,6.05
2022-10-05T20:06:42.739Z,6.90
2022-10-05T20:09:21.732Z,4.72
2022-10-05T20:11:54.281Z,2.67
2022-10-05T20:14:29.976Z,4.38
2022-10-05T20:17:36.215Z,5.25
2022-10-05T20:20:26.357Z,1.80
2022-10-05T20:23:22.583Z,0.77
2022-10-05T20:26:04.589Z,4.53
2022-10-05T20:28:33.177Z,1.58
2022-10-05T20:31:01.337Z,6.55
2022-10-05T20:33:30.241Z,1.90
2022-10-05T20:35:58.932Z,1.15
2022-10-05T20:38:28.423Z,1.30
2022-10-05T20:40:57.029Z,2.17
2022-10-05T20:43:24.970Z,4.85
2022-10-05T20:45:53.789Z,2.92
2022-10-05T20:48:21.800Z,1.08
2022-10-05T20:50:49.643Z,4.32
2022-10-05T20:53:17.495Z,4.53
2022-10-05T20:55:46.792Z,6.68
2022-10-05T20:58:14.726Z,5.72
2022-10-05T21:01:00.119Z,4.50
2022-10-05T21:03:28.433Z,6.93
2022-10-05T21:05:56.378Z,2.63
2022-10-05T21:08:25.160Z,6.18
2022-10-05T21:10:54.794Z,9.52
2022-10-05T21:13:22.643Z,6.13
2022-10-05T21:15:50.501Z,9.70
2022-10-05T21:18:20.190Z,3.25
2022-10-05T21:20:49.121Z,4.82
2022-10-05T21:23:16.986Z,3.42
2022-10-05T21:25:44.918Z,5.30
2022-10-05T21:28:14.147Z,3.40
2022-10-05T21:30:42.080Z,3.45
2022-10-05T21:33:10.082Z,6.68
2022-10-05T21:35:37.975Z,2.17
2022-10-05T21:38:05.824Z,5.95
2022-10-05T21:40:33.697Z,5.82
2022-10-05T21:43:02.323Z,3.85
2022-10-05T21:45:32.055Z,1.63
2022-10-05T21:48:00.109Z,5.97
2022-10-05T21:50:28.432Z,4.80
2022-10-05T21:52:56.570Z,5.65
2022-10-05T21:55:24.493Z,2.38
2022-10-05T21:57:52.626Z,4.75
2022-10-05T22:00:20.867Z,5.75
2022-10-05T22:02:50.282Z,3.50
2022-10-05T22:05:18.408Z,3.55
2022-10-05T22:07:46.503Z,9.75
2022-10-05T22:10:14.450Z,5.00
2022-10-05T22:12:42.810Z,9.23
2022-10-05T22:15:11.253Z,4.50
2022-10-05T22:17:39.152Z,4.35
2022-10-05T22:20:12.949Z,12.38
2022-10-05T22:22:40.890Z,4.72
2022-10-05T22:25:09.440Z,6.53
2022-10-05T22:27:37.446Z,9.18
2022-10-05T22:30:07.019Z,6.05
2022-10-05T22:32:34.896Z,4.50
2022-10-05T22:35:02.830Z,4.10
2022-10-05T22:37:34.908Z,6.55
2022-10-05T22:40:02.777Z,7.95
2022-10-05T22:42:30.677Z,6.95
2022-10-05T22:44:59.034Z,13.63
2022-10-05T22:47:26.981Z,8.00
2022-10-05T22:49:55.240Z,7.82
2022-10-05T22:52:23.156Z,8.00
2022-10-05T22:54:52.403Z,5.90
2022-10-05T22:57:20.659Z,10.15
2022-10-05T22:59:48.514Z,10.10
2022-10-05T23:02:18.604Z,7.72
2022-10-05T23:04:46.657Z,12.48
2022-10-05T23:07:14.536Z,11.30
2022-10-05T23:09:42.506Z,9.02
2022-10-05T23:12:13.347Z,6.25
2022-10-05T23:14:41.598Z,10.57
2022-10-05T23:17:09.469Z,12.93
2022-10-05T23:19:37.363Z,9.10
2022-10-05T23:22:05.295Z,8.73
2022-10-05T23:24:33.915Z,11.80
2022-10-05T23:27:01.811Z,12.40
2022-10-05T23:29:31.012Z,9.07
2022-10-05T23:31:58.884Z,9.75
2022-10-05T23:34:27.318Z,16.00
2022-10-05T23:36:55.271Z,10.63
2022-10-05T23:39:23.411Z,5.25
2022-10-05T23:41:51.303Z,12.30
2022-10-05T23:44:19.267Z,9.77
2022-10-05T23:46:48.504Z,15.05
2022-10-05T23:49:16.514Z,14.13
2022-10-05T23:51:44.999Z,13.85
2022-10-05T23:54:12.900Z,10.07
2022-10-05T23:56:40.770Z,7.65
2022-10-05T23:59:08.725Z,11.35
